Time;durP1;ratioP1;P1;durP2;ratioP2;P2;SDS_P1;SDS_P2;PMS_P1;PMS_P2;Temp;Humidity;BMP_temperature;BMP_pressure;BME280_temperature;BME280_humidity;BME280_pressure;Samples;Min_cycle;Max_cycle;Signal;HPM_P1;HPM_P2
2022/04/30 00:00:40;;;;;;;19.95;12.85;;;12.80;99.90;;;;;;5093282;28;20020;-58
2022/04/30 00:03:07;;;;;;;20.00;13.77;;;12.90;99.90;;;;;;5093551;28;20126;-59
2022/04/30 00:05:33;;;;;;;16.23;11.35;;;12.90;99.90;;;;;;5093342;28;20028;-58
2022/04/30 00:08:00;;;;;;;17.08;11.15;;;12.80;99.90;;;;;;5093015;28;20030;-58
2022/04/30 00:10:26;;;;;;;22.50;13.30;;;12.90;99.90;;;;;;5093677;28;20059;-60
2022/04/30 00:12:53;;;;;;;23.27;14.43;;;12.80;99.90;;;;;;5093646;28;20433;-58
2022/04/30 00:15:19;;;;;;;19.50;11.77;;;12.70;99.90;;;;;;5093086;28;20111;-60
2022/04/30 00:17:44;;;;;;;23.80;14.65;;;12.80;99.90;;;;;;5093403;28;20028;-59
2022/04/30 00:20:10;;;;;;;23.77;15.48;;;12.70;99.90;;;;;;5093256;28;20024;-59
2022/04/30 00:22:36;;;;;;;22.15;17.27;;;12.70;99.90;;;;;;5092924;28;20115;-59
2022/04/30 00:25:02;;;;;;;31.08;18.92;;;12.70;99.90;;;;;;5093308;28;20030;-59
2022/04/30 00:27:28;;;;;;;26.77;16.70;;;12.60;99.90;;;;;;5095157;28;20527;-59
2022/04/30 00:29:54;;;;;;;26.08;16.50;;;12.60;99.90;;;;;;5097179;28;20077;-59
2022/04/30 00:32:21;;;;;;;27.25;16.08;;;12.50;99.90;;;;;;5097314;28;20470;-59
2022/04/30 00:34:47;;;;;;;22.88;14.63;;;12.50;99.90;;;;;;5097289;28;20046;-59
2022/04/30 00:37:13;;;;;;;20.92;13.52;;;12.50;99.90;;;;;;5096947;28;20020;-58
2022/04/30 00:39:39;;;;;;;19.08;12.43;;;12.50;99.90;;;;;;5097474;28;20024;-59
2022/04/30 00:42:05;;;;;;;19.30;11.82;;;12.50;99.90;;;;;;5097161;28;20358;-59
2022/04/30 00:44:30;;;;;;;19.15;11.95;;;12.50;99.90;;;;;;5096986;28;20031;-59
2022/04/30 00:46:56;;;;;;;18.40;12.68;;;12.50;99.90;;;;;;5097153;28;20024;-59
2022/04/30 00:49:22;;;;;;;22.58;13.93;;;12.50;99.90;;;;;;5096995;28;20032;-59
2022/04/30 00:51:50;;;;;;;18.65;12.25;;;12.40;99.90;;;;;;5096912;28;20052;-59
2022/04/30 00:54:18;;;;;;;18.88;11.95;;;12.30;99.90;;;;;;5096954;28;20080;-60
2022/04/30 00:56:52;;;;;;;13.43;9.85;;;12.30;99.90;;;;;;5096576;28;20048;-60
2022/04/30 00:59:19;;;;;;;22.13;13.75;;;12.40;99.90;;;;;;5078440;28;20047;-58
2022/04/30 01:01:48;;;;;;;18.77;11.73;;;12.40;99.90;;;;;;5097018;28;20051;-60
2022/04/30 01:04:15;;;;;;;27.38;16.08;;;12.30;99.90;;;;;;5096605;28;20498;-58
2022/04/30 01:06:52;;;;;;;24.52;14.35;;;12.30;99.90;;;;;;5096365;28;20020;-59
2022/04/30 01:09:22;;;;;;;37.50;22.75;;;12.30;99.90;;;;;;5096834;28;20073;-58
2022/04/30 01:12:03;;;;;;;30.05;17.48;;;12.30;99.90;;;;;;5096770;28;20398;-58
2022/04/30 01:14:31;;;;;;;26.75;16.17;;;12.20;99.90;;;;;;5096637;28;20036;-58
2022/04/30 01:17:04;;;;;;;24.38;15.18;;;12.20;99.90;;;;;;5096674;28;20024;-59
2022/04/30 01:19:34;;;;;;;24.17;14.88;;;12.30;99.90;;;;;;5096372;28;20024;-59
2022/04/30 01:22:09;;;;;;;19.42;12.13;;;12.20;99.90;;;;;;5096202;28;20028;-59
2022/04/30 01:24:36;;;;;;;14.23;10.48;;;12.20;99.90;;;;;;5096178;28;20110;-59
2022/04/30 01:27:04;;;;;;;13.77;9.95;;;12.20;99.90;;;;;;5096513;28;20027;-59
2022/04/30 01:29:32;;;;;;;11.68;8.38;;;12.20;99.90;;;;;;5096645;28;20408;-59
2022/04/30 01:37:29;;;;;;;10.55;7.35;;;12.20;99.90;;;;;;5096221;28;20050;-59
2022/04/30 01:40:19;;;;;;;11.90;7.60;;;12.30;99.90;;;;;;5095414;28;20050;-59
2022/04/30 01:42:47;;;;;;;26.65;11.45;;;12.30;99.90;;;;;;5095133;28;20047;-58
2022/04/30 01:45:14;;;;;;;17.27;9.98;;;12.20;99.90;;;;;;5095870;28;20471;-59
2022/04/30 01:47:44;;;;;;;24.20;12.70;;;12.20;99.90;;;;;;5095924;28;20070;-59
2022/04/30 01:50:10;;;;;;;24.63;14.23;;;12.20;99.90;;;;;;5095650;28;20051;-59
2022/04/30 01:52:36;;;;;;;22.58;12.90;;;12.20;99.90;;;;;;5095726;28;20055;-59
2022/04/30 01:55:03;;;;;;;20.70;12.68;;;12.10;99.90;;;;;;5095493;28;20082;-59
2022/04/30 01:57:29;;;;;;;21.30;13.05;;;12.10;99.90;;;;;;5095835;28;20378;-59
2022/04/30 01:59:56;;;;;;;23.25;12.32;;;12.10;99.90;;;;;;5095501;28;20020;-58
2022/04/30 02:02:24;;;;;;;16.48;10.25;;;12.10;99.90;;;;;;5095631;28;20073;-59
2022/04/30 02:04:55;;;;;;;17.02;9.85;;;12.10;99.90;;;;;;5095486;28;20047;-59
2022/04/30 02:07:23;;;;;;;18.33;11.05;;;12.10;99.90;;;;;;5095771;28;20355;-59
2022/04/30 02:09:51;;;;;;;16.88;10.05;;;12.00;99.90;;;;;;5095677;28;20390;-59
2022/04/30 02:12:18;;;;;;;17.00;11.10;;;11.90;99.90;;;;;;5095626;28;20468;-59
2022/04/30 02:14:50;;;;;;;14.13;8.85;;;11.90;99.90;;;;;;5095270;28;20024;-59
2022/04/30 02:17:17;;;;;;;13.05;8.45;;;11.90;99.90;;;;;;5095370;28;20154;-59
2022/04/30 02:22:30;;;;;;;9.10;6.53;;;11.80;99.90;;;;;;5095181;28;20024;-59
2022/04/30 02:24:59;;;;;;;7.63;5.75;;;11.80;99.90;;;;;;5095129;28;20481;-60
2022/04/30 02:27:26;;;;;;;7.15;5.30;;;11.80;99.90;;;;;;5095338;28;20016;-59
2022/04/30 02:29:52;;;;;;;6.15;5.05;;;11.80;99.90;;;;;;5095199;28;20024;-59
2022/04/30 02:32:18;;;;;;;6.80;5.13;;;11.80;99.90;;;;;;5095014;28;20024;-59
2022/04/30 02:34:44;;;;;;;12.20;7.65;;;11.80;99.90;;;;;;5094929;28;20032;-59
2022/04/30 02:37:14;;;;;;;10.73;6.50;;;11.70;99.90;;;;;;5095412;28;20016;-60
2022/04/30 02:39:45;;;;;;;13.98;8.25;;;11.70;99.90;;;;;;5094798;28;20482;-58
2022/04/30 02:42:11;;;;;;;12.85;7.50;;;11.70;99.90;;;;;;5095072;28;20028;-57
2022/04/30 02:44:38;;;;;;;13.07;7.45;;;11.70;99.90;;;;;;5094588;28;20067;-59
2022/04/30 02:47:03;;;;;;;9.85;6.80;;;11.70;99.90;;;;;;5094464;28;20028;-59
2022/04/30 02:49:29;;;;;;;9.77;5.95;;;11.70;99.90;;;;;;5094620;28;20020;-58
2022/04/30 02:51:55;;;;;;;7.75;5.20;;;11.60;99.90;;;;;;5094598;28;20059;-59
2022/04/30 02:54:20;;;;;;;7.43;5.28;;;11.60;99.90;;;;;;5094532;28;20028;-59
2022/04/30 02:56:46;;;;;;;9.05;5.95;;;11.60;99.90;;;;;;5094595;28;20028;-59
2022/04/30 03:01:56;;;;;;;7.88;5.35;;;11.50;99.90;;;;;;5094258;28;20058;-59
2022/04/30 03:04:22;;;;;;;6.68;5.30;;;11.50;99.90;;;;;;5094475;28;20043;-59
2022/04/30 03:06:47;;;;;;;8.32;5.30;;;11.50;99.90;;;;;;5094198;28;20531;-59
2022/04/30 03:09:13;;;;;;;7.63;5.45;;;11.40;99.90;;;;;;5094399;28;20077;-59
2022/04/30 03:11:39;;;;;;;7.22;5.38;;;11.40;99.90;;;;;;5094223;28;20042;-59
2022/04/30 03:14:04;;;;;;;8.05;5.50;;;11.30;99.90;;;;;;5094106;28;20073;-59
2022/04/30 03:22:00;;;;;;;8.52;6.28;;;11.30;99.90;;;;;;5094118;28;20027;-59
2022/04/30 03:24:29;;;;;;;7.35;5.30;;;11.20;99.90;;;;;;5094113;28;20020;-59
2022/04/30 03:26:54;;;;;;;7.03;5.57;;;11.20;99.90;;;;;;5093905;28;20032;-59
2022/04/30 03:29:20;;;;;;;5.20;4.40;;;11.10;99.90;;;;;;5093939;28;20028;-60
2022/04/30 03:31:47;;;;;;;7.38;5.90;;;11.10;99.90;;;;;;5093902;28;20473;-59
2022/04/30 03:34:14;;;;;;;8.77;7.03;;;11.10;99.90;;;;;;5093689;28;20028;-59
2022/04/30 03:36:40;;;;;;;8.77;6.22;;;11.10;99.90;;;;;;5093902;28;20028;-59
2022/04/30 03:39:06;;;;;;;7.70;5.88;;;11.10;99.90;;;;;;5094046;28;20043;-59
2022/04/30 03:41:32;;;;;;;8.88;6.97;;;11.10;99.90;;;;;;5093705;28;20481;-59
2022/04/30 03:43:58;;;;;;;7.35;5.70;;;11.10;99.90;;;;;;5093798;28;20032;-56
2022/04/30 03:46:24;;;;;;;7.18;5.68;;;11.10;99.90;;;;;;5093534;28;20028;-59
2022/04/30 03:48:56;;;;;;;10.55;8.18;;;11.10;99.90;;;;;;5093562;28;20093;-59
2022/04/30 03:51:23;;;;;;;11.82;8.43;;;11.00;99.90;;;;;;5093722;28;20022;-59
2022/04/30 03:53:49;;;;;;;12.10;7.57;;;11.00;99.90;;;;;;5093880;28;20024;-59
2022/04/30 03:56:19;;;;;;;14.02;9.27;;;11.00;99.90;;;;;;5093167;28;20079;-60
2022/04/30 03:58:47;;;;;;;9.43;7.28;;;11.00;99.90;;;;;;5093717;28;20038;-57
2022/04/30 04:01:14;;;;;;;10.40;7.15;;;11.00;99.90;;;;;;5093081;28;20067;-59
2022/04/30 04:03:41;;;;;;;8.38;6.35;;;11.00;99.90;;;;;;5093187;28;20058;-59
2022/04/30 04:06:07;;;;;;;8.85;6.38;;;11.00;99.90;;;;;;5093634;28;20385;-59
2022/04/30 04:08:35;;;;;;;7.22;6.05;;;11.00;99.90;;;;;;5093421;28;20054;-59
2022/04/30 04:11:01;;;;;;;7.10;5.30;;;11.00;99.90;;;;;;5093328;28;20051;-59
2022/04/30 04:19:14;;;;;;;7.50;5.53;;;11.00;99.90;;;;;;5051106;28;20036;-58
2022/04/30 04:21:40;;;;;;;5.40;4.78;;;11.00;99.90;;;;;;5075640;28;20028;-59
2022/04/30 04:26:50;;;;;;;7.72;5.00;;;11.00;99.90;;;;;;5093208;28;20101;-59
2022/04/30 04:29:16;;;;;;;7.25;5.20;;;11.00;99.90;;;;;;5093281;28;20062;-60
2022/04/30 04:31:46;;;;;;;5.38;4.82;;;11.00;99.90;;;;;;5093130;28;20443;-57
2022/04/30 04:34:12;;;;;;;7.43;5.10;;;11.00;99.90;;;;;;5093340;28;20028;-57
2022/04/30 04:36:37;;;;;;;7.65;5.50;;;11.10;99.90;;;;;;5092993;28;20082;-58
2022/04/30 04:39:14;;;;;;;11.38;7.43;;;11.00;99.90;;;;;;5093027;28;20082;-58
2022/04/30 04:41:42;;;;;;;10.40;7.13;;;11.10;99.90;;;;;;5092983;28;20016;-59
2022/04/30 04:44:09;;;;;;;8.98;6.78;;;11.00;99.90;;;;;;5092952;28;20032;-57
2022/04/30 04:46:35;;;;;;;13.45;9.55;;;11.10;99.90;;;;;;5093147;28;20066;-59
2022/04/30 04:49:01;;;;;;;18.35;9.73;;;11.10;99.90;;;;;;5092871;28;20024;-56
2022/04/30 04:51:28;;;;;;;18.58;13.82;;;11.10;99.90;;;;;;5093514;28;20021;-60
2022/04/30 04:53:55;;;;;;;20.35;13.52;;;11.10;99.90;;;;;;5092992;28;20024;-59
2022/04/30 04:56:20;;;;;;;20.25;14.80;;;11.00;99.90;;;;;;5092681;28;20039;-59
2022/04/30 04:58:46;;;;;;;26.35;16.98;;;11.00;99.90;;;;;;5092548;28;20100;-59
2022/04/30 05:01:12;;;;;;;26.52;17.45;;;11.10;99.90;;;;;;5093190;28;20046;-59
2022/04/30 05:03:37;;;;;;;24.88;15.95;;;11.20;99.90;;;;;;5092796;28;20028;-59
2022/04/30 05:06:04;;;;;;;27.13;17.98;;;11.30;99.90;;;;;;5092759;28;20074;-60
2022/04/30 05:08:30;;;;;;;21.73;16.48;;;11.40;99.90;;;;;;5092866;28;20020;-59
2022/04/30 05:10:55;;;;;;;34.08;22.27;;;11.50;99.90;;;;;;5092937;28;20028;-58
2022/04/30 05:13:21;;;;;;;35.33;23.58;;;11.60;99.90;;;;;;5092811;28;20107;-57
2022/04/30 05:15:47;;;;;;;33.63;22.85;;;11.50;99.90;;;;;;5096348;28;20028;-59
2022/04/30 05:18:12;;;;;;;33.13;21.00;;;11.60;99.90;;;;;;5096453;28;20019;-60
2022/04/30 05:20:39;;;;;;;31.20;18.83;;;11.60;99.90;;;;;;5096285;28;20023;-57
2022/04/30 05:23:05;;;;;;;31.58;21.35;;;11.80;99.90;;;;;;5096557;28;20028;-56
2022/04/30 05:25:31;;;;;;;33.65;22.33;;;11.90;99.90;;;;;;5096347;28;20039;-59
2022/04/30 05:27:57;;;;;;;33.50;21.90;;;11.90;99.90;;;;;;5095958;28;20023;-59
2022/04/30 05:30:23;;;;;;;31.42;22.35;;;12.00;99.90;;;;;;5096295;28;20016;-58
2022/04/30 05:32:49;;;;;;;56.97;36.42;;;12.00;99.90;;;;;;5096368;28;20020;-58
2022/04/30 05:35:15;;;;;;;68.22;45.20;;;11.90;99.90;;;;;;5095895;28;20414;-59
2022/04/30 05:37:41;;;;;;;65.65;40.05;;;12.00;99.90;;;;;;5096190;28;20024;-59
2022/04/30 05:40:07;;;;;;;47.95;33.22;;;12.00;99.90;;;;;;5095912;28;20036;-57
2022/04/30 05:42:33;;;;;;;51.38;32.95;;;12.10;99.90;;;;;;5095947;28;20409;-57
2022/04/30 05:44:59;;;;;;;56.05;34.60;;;12.40;99.90;;;;;;5096160;28;20081;-59
2022/04/30 05:47:25;;;;;;;41.92;28.00;;;12.60;99.90;;;;;;5095981;28;20020;-59
2022/04/30 05:49:51;;;;;;;25.75;18.33;;;12.80;99.90;;;;;;5095697;28;20488;-57
2022/04/30 05:52:19;;;;;;;23.33;16.30;;;13.00;99.90;;;;;;5095717;28;20012;-58
2022/04/30 05:54:47;;;;;;;23.10;16.58;;;13.30;99.90;;;;;;5095728;28;20056;-60
2022/04/30 05:57:13;;;;;;;18.13;14.05;;;13.50;99.90;;;;;;5095443;28;20110;-59
2022/04/30 05:59:39;;;;;;;17.92;12.95;;;13.40;99.90;;;;;;5095490;28;20411;-60
2022/04/30 06:02:05;;;;;;;18.75;12.80;;;13.60;99.90;;;;;;5095550;28;20024;-60
2022/04/30 06:04:30;;;;;;;15.93;10.60;;;13.60;99.90;;;;;;5095483;28;20016;-60
2022/04/30 06:06:58;;;;;;;14.18;11.48;;;13.70;99.90;;;;;;5095726;28;20024;-59
2022/04/30 06:09:24;;;;;;;14.48;9.50;;;14.00;99.90;;;;;;5095465;28;20115;-59
2022/04/30 06:11:51;;;;;;;11.93;8.05;;;14.20;99.90;;;;;;5095526;28;20046;-59
2022/04/30 06:14:17;;;;;;;11.88;7.95;;;14.60;99.90;;;;;;5095293;28;20020;-58
2022/04/30 06:16:42;;;;;;;8.32;6.80;;;14.70;99.90;;;;;;5095216;28;20141;-59
2022/04/30 06:19:08;;;;;;;6.70;5.97;;;14.90;99.90;;;;;;5095495;28;20107;-59
2022/04/30 06:21:34;;;;;;;7.10;6.10;;;15.10;99.90;;;;;;5095409;28;20500;-60
2022/04/30 06:24:00;;;;;;;6.90;5.78;;;15.20;99.90;;;;;;5095088;28;20024;-60
2022/04/30 06:26:25;;;;;;;6.68;5.43;;;15.50;99.90;;;;;;5094542;28;20065;-60
2022/04/30 06:28:51;;;;;;;5.75;4.72;;;15.70;99.90;;;;;;5095248;28;20026;-59
2022/04/30 06:31:17;;;;;;;7.50;5.45;;;15.80;99.90;;;;;;5095018;28;20082;-59
2022/04/30 06:33:42;;;;;;;5.47;4.57;;;15.90;99.90;;;;;;5095039;28;20020;-58
2022/04/30 06:36:08;;;;;;;5.30;4.70;;;16.00;99.90;;;;;;5094818;28;20539;-60
2022/04/30 06:38:34;;;;;;;4.63;4.13;;;16.10;99.90;;;;;;5094789;28;20074;-59
2022/04/30 06:41:00;;;;;;;6.35;4.45;;;16.30;99.90;;;;;;5094964;28;20048;-60
2022/04/30 06:43:25;;;;;;;5.50;4.18;;;16.80;99.90;;;;;;5094760;28;20012;-60
2022/04/30 06:45:51;;;;;;;4.80;3.95;;;18.20;94.50;;;;;;5094968;28;20489;-59
2022/04/30 06:48:17;;;;;;;4.82;4.20;;;18.50;90.60;;;;;;5094798;28;20020;-59
2022/04/30 06:50:45;;;;;;;5.70;4.32;;;18.30;90.70;;;;;;5094644;28;20020;-58
2022/04/30 06:58:50;;;;;;;5.63;4.20;;;23.80;64.60;;;;;;5094577;28;20035;-60
2022/04/30 07:01:37;;;;;;;5.63;4.40;;;25.60;60.00;;;;;;5094428;28;20046;-59
2022/04/30 07:04:05;;;;;;;5.07;4.63;;;26.70;55.60;;;;;;5094533;28;20103;-59
2022/04/30 07:06:32;;;;;;;9.57;6.47;;;27.50;50.30;;;;;;5094445;28;20032;-60
2022/04/30 07:08:58;;;;;;;10.07;7.68;;;27.70;48.70;;;;;;5093989;28;20107;-60
2022/04/30 07:11:25;;;;;;;9.15;8.07;;;28.10;47.90;;;;;;5094219;28;20024;-60
2022/04/30 07:13:52;;;;;;;7.00;6.35;;;28.70;46.10;;;;;;5094313;28;20081;-60
2022/04/30 07:16:17;;;;;;;7.93;7.13;;;29.60;46.50;;;;;;5094207;28;20036;-60
2022/04/30 07:18:43;;;;;;;6.38;5.40;;;30.10;43.60;;;;;;5094161;28;20123;-59
2022/04/30 07:21:09;;;;;;;7.15;5.45;;;30.50;43.20;;;;;;5094179;28;20020;-59
2022/04/30 07:23:35;;;;;;;6.32;5.43;;;30.70;43.70;;;;;;5093788;28;20069;-60
2022/04/30 07:26:00;;;;;;;7.45;6.05;;;30.70;42.00;;;;;;5094031;28;20024;-59
2022/04/30 07:28:30;;;;;;;6.57;5.80;;;31.00;39.90;;;;;;5094227;28;20059;-60
2022/04/30 07:30:56;;;;;;;7.35;6.53;;;31.30;40.10;;;;;;5093857;28;20525;-59
2022/04/30 07:33:21;;;;;;;6.30;5.70;;;31.70;38.80;;;;;;5094022;28;20016;-60
2022/04/30 07:35:48;;;;;;;7.00;6.28;;;31.80;38.70;;;;;;5093876;28;20032;-60
2022/04/30 07:38:14;;;;;;;6.30;5.45;;;32.20;38.50;;;;;;5092883;28;20090;-60
2022/04/30 07:40:40;;;;;;;6.25;5.38;;;32.30;38.40;;;;;;5093799;28;20020;-59
2022/04/30 07:43:05;;;;;;;4.97;4.47;;;33.00;38.20;;;;;;5093849;28;20062;-60
2022/04/30 07:45:31;;;;;;;5.57;5.00;;;33.20;38.60;;;;;;5093992;28;20038;-61
2022/04/30 07:47:57;;;;;;;7.25;5.60;;;33.30;37.50;;;;;;5093590;28;20028;-60
2022/04/30 07:50:25;;;;;;;7.47;6.72;;;33.60;37.70;;;;;;5093578;28;20118;-60
2022/04/30 07:52:51;;;;;;;5.47;4.97;;;34.00;39.10;;;;;;5093594;28;20369;-60
2022/04/30 07:55:16;;;;;;;6.30;5.70;;;33.70;36.10;;;;;;5093351;28;20139;-60
2022/04/30 07:57:43;;;;;;;8.63;5.65;;;33.50;37.60;;;;;;5093953;28;20051;-60
2022/04/30 08:00:11;;;;;;;5.07;4.57;;;33.70;37.70;;;;;;5093406;28;20474;-60
2022/04/30 08:02:36;;;;;;;5.78;5.10;;;33.40;37.40;;;;;;5093341;28;20048;-60
2022/04/30 08:05:02;;;;;;;5.53;5.03;;;33.20;37.70;;;;;;5093658;28;20059;-60
2022/04/30 08:07:28;;;;;;;4.97;4.50;;;32.70;36.60;;;;;;5093356;28;20016;-60
2022/04/30 08:09:53;;;;;;;4.30;3.90;;;32.20;37.90;;;;;;5093478;28;20085;-60
2022/04/30 08:12:20;;;;;;;4.55;4.07;;;32.50;38.40;;;;;;5093316;28;20454;-60
2022/04/30 08:14:47;;;;;;;7.10;6.40;;;33.10;38.20;;;;;;5093394;28;20043;-60
2022/04/30 08:17:13;;;;;;;4.57;4.18;;;33.20;36.10;;;;;;5093433;28;20032;-60
2022/04/30 08:19:40;;;;;;;5.97;5.47;;;32.80;38.50;;;;;;5093701;28;20021;-60
2022/04/30 08:22:06;;;;;;;5.13;4.70;;;33.10;36.40;;;;;;5093367;28;20437;-59
2022/04/30 08:24:32;;;;;;;5.05;4.65;;;31.50;40.40;;;;;;5093125;28;20054;-59
2022/04/30 08:26:59;;;;;;;4.80;4.40;;;29.40;38.70;;;;;;5093370;28;20028;-59
2022/04/30 08:29:28;;;;;;;7.00;6.30;;;29.40;39.70;;;;;;5093514;28;20488;-60
2022/04/30 08:31:54;;;;;;;6.25;5.65;;;28.90;40.10;;;;;;5093399;28;20039;-61
2022/04/30 08:34:20;;;;;;;5.70;4.50;;;27.80;40.00;;;;;;5093316;28;20024;-60
2022/04/30 08:36:45;;;;;;;5.65;5.22;;;26.60;41.20;;;;;;5092752;28;20493;-60
2022/04/30 08:39:12;;;;;;;4.70;4.28;;;25.60;41.20;;;;;;5093148;28;20024;-60
2022/04/30 08:41:42;;;;;;;4.70;4.30;;;26.30;44.80;;;;;;5093001;28;20013;-60
2022/04/30 08:44:12;;;;;;;4.38;4.07;;;26.50;42.10;;;;;;5093312;28;20421;-60
2022/04/30 08:46:39;;;;;;;4.32;3.63;;;27.10;43.70;;;;;;5092927;28;20103;-61
2022/04/30 08:49:06;;;;;;;4.93;4.43;;;26.20;42.60;;;;;;5095927;28;20386;-61
2022/04/30 08:51:31;;;;;;;4.60;4.22;;;24.90;42.60;;;;;;5096745;28;20020;-59
2022/04/30 08:53:58;;;;;;;5.10;4.60;;;24.00;45.50;;;;;;5096968;28;20467;-59
2022/04/30 08:56:24;;;;;;;4.25;3.90;;;23.50;45.20;;;;;;5096700;28;20109;-60
2022/04/30 08:58:51;;;;;;;4.63;4.22;;;24.10;46.30;;;;;;5096922;28;20024;-59
2022/04/30 09:01:17;;;;;;;4.43;3.95;;;24.00;46.10;;;;;;5096799;28;20020;-61
2022/04/30 09:03:46;;;;;;;3.72;3.42;;;23.60;46.00;;;;;;5096914;28;20099;-59
2022/04/30 09:06:17;;;;;;;3.25;2.97;;;23.70;47.70;;;;;;5097153;28;20024;-60
2022/04/30 09:08:50;;;;;;;3.25;2.95;;;24.70;46.20;;;;;;5096542;28;20017;-60
2022/04/30 09:11:16;;;;;;;3.22;2.92;;;26.30;46.30;;;;;;5096581;28;20020;-60
2022/04/30 09:13:46;;;;;;;6.18;4.95;;;27.20;44.40;;;;;;5096576;28;20031;-60
2022/04/30 09:16:23;;;;;;;5.93;5.43;;;27.40;41.50;;;;;;5096367;28;20059;-60
2022/04/30 09:18:50;;;;;;;5.80;5.20;;;27.10;44.00;;;;;;5096716;28;20036;-60
2022/04/30 09:21:17;;;;;;;3.80;3.50;;;26.50;46.80;;;;;;5096498;28;20461;-59
2022/04/30 09:23:43;;;;;;;3.88;3.58;;;25.90;45.80;;;;;;5096555;28;20027;-59
2022/04/30 09:26:10;;;;;;;3.35;3.05;;;25.30;44.50;;;;;;5096359;28;20034;-60
2022/04/30 09:28:38;;;;;;;3.50;3.20;;;25.00;46.50;;;;;;5096293;28;20016;-60
2022/04/30 09:31:09;;;;;;;3.30;3.00;;;24.80;46.60;;;;;;5096103;28;20386;-60
2022/04/30 09:33:52;;;;;;;4.40;4.00;;;24.60;46.40;;;;;;5096023;28;20016;-59
2022/04/30 09:39:13;;;;;;;3.08;2.78;;;23.60;46.10;;;;;;5096211;28;20035;-60
2022/04/30 09:41:39;;;;;;;4.05;3.63;;;23.50;48.60;;;;;;5096320;28;20141;-60
2022/04/30 09:44:06;;;;;;;3.65;3.15;;;23.50;49.00;;;;;;5096098;28;20082;-60
2022/04/30 09:46:38;;;;;;;3.20;3.00;;;23.50;49.40;;;;;;5095905;28;20122;-60
2022/04/30 09:54:39;;;;;;;3.50;3.20;;;24.60;44.70;;;;;;5095679;28;20028;-60
2022/04/30 09:57:07;;;;;;;4.13;3.83;;;24.20;47.20;;;;;;5095683;28;20027;-60
2022/04/30 09:59:38;;;;;;;4.18;3.60;;;23.60;46.00;;;;;;5095197;28;20110;-60
2022/04/30 10:02:06;;;;;;;3.30;3.00;;;23.40;48.50;;;;;;5095475;28;20112;-60
2022/04/30 10:04:34;;;;;;;2.92;2.72;;;23.30;46.90;;;;;;5095812;28;20020;-60
2022/04/30 10:07:01;;;;;;;3.35;3.05;;;23.20;46.10;;;;;;5095803;28;20104;-60
2022/04/30 10:09:33;;;;;;;3.85;3.40;;;23.40;47.70;;;;;;5095593;28;20111;-60
2022/04/30 10:12:19;;;;;;;3.77;3.47;;;24.20;49.00;;;;;;5095635;28;20024;-60
2022/04/30 10:15:10;;;;;;;3.50;3.20;;;24.30;47.40;;;;;;5095231;28;20027;-60
2022/04/30 10:17:40;;;;;;;3.13;2.88;;;23.80;46.00;;;;;;5095225;28;20024;-60
2022/04/30 10:20:19;;;;;;;3.65;3.20;;;23.60;46.20;;;;;;5095227;28;20496;-59
2022/04/30 10:22:53;;;;;;;2.45;2.25;;;23.40;46.90;;;;;;5095528;28;20386;-60
2022/04/30 10:25:44;;;;;;;3.72;2.50;;;23.20;49.10;;;;;;5095301;28;20051;-60
2022/04/30 10:28:23;;;;;;;3.67;3.38;;;23.10;47.90;;;;;;5080952;28;20032;-59
2022/04/30 10:31:01;;;;;;;2.80;2.60;;;23.10;48.50;;;;;;5095036;28;20385;-61
2022/04/30 10:33:28;;;;;;;2.67;2.45;;;23.10;48.10;;;;;;5095042;28;20020;-60
2022/04/30 10:36:07;;;;;;;2.65;2.22;;;23.20;48.90;;;;;;5094827;28;20040;-60
2022/04/30 10:38:33;;;;;;;2.35;2.08;;;23.20;48.60;;;;;;5094967;28;20412;-60
2022/04/30 10:41:00;;;;;;;3.22;2.72;;;23.60;49.50;;;;;;5094982;28;20031;-60
2022/04/30 10:43:35;;;;;;;3.00;2.70;;;23.80;49.50;;;;;;5094594;28;20060;-60
2022/04/30 10:46:23;;;;;;;2.83;2.35;;;23.80;49.60;;;;;;5094723;28;20031;-60
2022/04/30 10:48:48;;;;;;;2.42;2.30;;;23.60;49.80;;;;;;5094877;28;20032;-60
2022/04/30 10:51:30;;;;;;;2.60;2.40;;;23.60;48.90;;;;;;5094810;28;20073;-60
2022/04/30 10:53:58;;;;;;;2.17;1.95;;;23.50;49.60;;;;;;5094629;28;20016;-60
2022/04/30 10:56:27;;;;;;;2.30;2.10;;;23.50;48.70;;;;;;5094257;28;20068;-60
2022/04/30 10:58:53;;;;;;;1.98;1.83;;;23.40;49.30;;;;;;5094528;28;20028;-60
2022/04/30 11:01:20;;;;;;;2.15;2.05;;;23.40;49.00;;;;;;5094507;28;20020;-60
2022/04/30 11:03:50;;;;;;;2.92;2.10;;;23.50;47.90;;;;;;5094441;28;20024;-60
2022/04/30 11:06:24;;;;;;;1.80;1.70;;;23.40;47.30;;;;;;5094496;28;20069;-60
2022/04/30 11:09:16;;;;;;;1.60;1.50;;;23.60;47.10;;;;;;5094548;28;20434;-59
2022/04/30 11:11:47;;;;;;;2.00;1.90;;;23.80;47.70;;;;;;5088666;28;20032;-59
2022/04/30 11:14:13;;;;;;;2.00;1.90;;;24.00;48.40;;;;;;5094403;28;20028;-60
2022/04/30 11:16:45;;;;;;;1.90;1.80;;;24.30;44.20;;;;;;5075675;28;20367;-60
2022/04/30 11:19:13;;;;;;;1.95;1.85;;;24.20;45.40;;;;;;5094292;28;20020;-60
2022/04/30 11:21:58;;;;;;;2.03;1.92;;;23.90;46.70;;;;;;5094412;28;20382;-59
2022/04/30 11:24:32;;;;;;;2.20;2.00;;;23.80;47.70;;;;;;5094188;28;20023;-59
2022/04/30 11:26:59;;;;;;;2.60;1.48;;;23.80;47.30;;;;;;5094072;28;20481;-59
2022/04/30 11:29:26;;;;;;;1.63;1.52;;;23.60;47.40;;;;;;5093842;28;20094;-59
2022/04/30 11:31:53;;;;;;;1.60;1.50;;;23.70;47.20;;;;;;5094148;28;20359;-60
2022/04/30 11:34:20;;;;;;;1.67;1.55;;;24.20;47.90;;;;;;5094055;28;20023;-59
2022/04/30 11:36:51;;;;;;;3.75;2.50;;;24.90;45.10;;;;;;5094016;28;20031;-59
2022/04/30 11:39:18;;;;;;;3.03;2.75;;;25.70;44.30;;;;;;5093752;28;20024;-60
2022/04/30 11:41:46;;;;;;;4.32;2.90;;;26.00;43.70;;;;;;5093768;28;20024;-59
2022/04/30 11:44:14;;;;;;;2.53;2.28;;;26.60;43.90;;;;;;5093647;28;20038;-60
2022/04/30 11:46:40;;;;;;;3.05;2.22;;;27.10;43.50;;;;;;5093597;28;20085;-60
2022/04/30 11:49:18;;;;;;;2.20;2.00;;;27.60;42.40;;;;;;5093903;28;20020;-61
2022/04/30 11:51:44;;;;;;;1.90;1.73;;;27.80;40.30;;;;;;5093614;28;20482;-59
2022/04/30 11:54:13;;;;;;;3.17;2.45;;;27.80;42.00;;;;;;5093428;28;20042;-60
2022/04/30 11:56:44;;;;;;;2.25;2.10;;;27.80;39.70;;;;;;5093353;28;20052;-60
2022/04/30 11:59:11;;;;;;;2.97;2.10;;;27.60;41.70;;;;;;5093303;28;20465;-59
2022/04/30 12:01:42;;;;;;;1.85;1.75;;;27.50;39.80;;;;;;5093389;28;20108;-61
2022/04/30 12:04:14;;;;;;;2.15;1.95;;;27.80;39.40;;;;;;5093547;28;20378;-60
2022/04/30 12:06:44;;;;;;;2.10;1.90;;;27.60;40.10;;;;;;5093302;28;20493;-60
2022/04/30 12:09:18;;;;;;;1.75;1.65;;;26.90;39.20;;;;;;5093421;28;20548;-60
2022/04/30 12:11:51;;;;;;;2.20;2.00;;;26.90;39.70;;;;;;5093656;28;20119;-60
2022/04/30 12:14:20;;;;;;;3.15;2.30;;;26.90;39.50;;;;;;5093442;28;20083;-61
2022/04/30 12:16:48;;;;;;;2.28;2.10;;;26.60;39.50;;;;;;5093352;28;20039;-61
2022/04/30 12:25:09;;;;;;;2.25;2.05;;;25.90;39.90;;;;;;5097786;28;20547;-60
2022/04/30 12:27:38;;;;;;;2.28;2.08;;;25.90;41.00;;;;;;5097280;28;20028;-61
2022/04/30 12:30:12;;;;;;;2.25;2.05;;;26.10;40.80;;;;;;5097411;28;20039;-60
2022/04/30 12:32:52;;;;;;;1.95;1.77;;;26.20;41.00;;;;;;5097018;28;20020;-60
2022/04/30 12:35:33;;;;;;;2.05;1.75;;;26.20;40.70;;;;;;5097174;28;20032;-60
2022/04/30 12:38:12;;;;;;;1.95;1.75;;;26.10;40.90;;;;;;5097360;28;20483;-60
2022/04/30 12:40:44;;;;;;;2.13;1.92;;;26.20;40.30;;;;;;5097304;28;20044;-60
2022/04/30 12:43:09;;;;;;;2.08;1.88;;;26.40;42.40;;;;;;5097062;28;20405;-60
2022/04/30 12:45:37;;;;;;;2.95;1.98;;;26.80;41.80;;;;;;5097277;28;20041;-60
2022/04/30 12:48:04;;;;;;;3.10;2.17;;;27.20;41.10;;;;;;5097126;28;20020;-60
2022/04/30 12:50:32;;;;;;;2.50;2.30;;;26.40;36.10;;;;;;5097115;28;20047;-60
2022/04/30 12:52:59;;;;;;;2.65;2.45;;;26.00;38.70;;;;;;5096894;28;20031;-61
2022/04/30 12:55:25;;;;;;;2.60;2.40;;;25.60;38.00;;;;;;5096937;28;20044;-59
2022/04/30 12:57:51;;;;;;;2.35;2.13;;;25.30;38.60;;;;;;5096697;28;20065;-59
2022/04/30 13:00:18;;;;;;;2.28;2.08;;;25.40;39.30;;;;;;5096804;28;20020;-61
2022/04/30 13:02:45;;;;;;;2.65;2.10;;;25.50;39.70;;;;;;5097071;28;20020;-60
2022/04/30 13:05:12;;;;;;;1.70;1.60;;;25.60;42.40;;;;;;5096774;28;20054;-60
2022/04/30 13:07:39;;;;;;;2.42;2.22;;;25.80;41.60;;;;;;5096865;28;20020;-61
2022/04/30 13:15:35;;;;;;;2.38;2.13;;;25.70;42.50;;;;;;5096725;28;20081;-60
2022/04/30 13:18:02;;;;;;;3.90;2.90;;;26.00;43.30;;;;;;5096659;28;20382;-60
2022/04/30 13:20:29;;;;;;;2.80;2.60;;;26.50;41.80;;;;;;5096347;28;20115;-61
2022/04/30 13:22:56;;;;;;;3.60;3.30;;;26.40;39.50;;;;;;5096570;28;20024;-60
2022/04/30 13:25:31;;;;;;;3.40;3.10;;;26.10;38.70;;;;;;5096436;28;20039;-60
2022/04/30 13:27:57;;;;;;;3.05;2.75;;;25.60;40.30;;;;;;5096600;28;20058;-60
2022/04/30 13:30:29;;;;;;;3.55;2.35;;;25.50;41.10;;;;;;5096249;28;20024;-60
2022/04/30 13:32:55;;;;;;;3.60;2.42;;;25.40;39.70;;;;;;5096155;28;20064;-60
2022/04/30 13:35:20;;;;;;;3.97;3.00;;;25.30;39.00;;;;;;5094947;28;20406;-60